Time;durP1;ratioP1;P1;durP2;ratioP2;P2;SDS_P1;SDS_P2;PMS_P1;PMS_P2;Temp;Humidity;BMP_temperature;BMP_pressure;BME280_temperature;BME280_humidity;BME280_pressure;Samples;Min_cycle;Max_cycle;Signal;HPM_P1;HPM_P2
2022/02/14 00:02:00;;;;;;;10.80;5.00;;;;;;;-0.50;74.36;100652.93;1739119;80;21100;-50
2022/02/14 00:04:27;;;;;;;9.30;2.97;;;;;;;-0.50;74.32;100651.17;1735276;80;21088;-51
2022/02/14 00:06:55;;;;;;;6.00;2.50;;;;;;;-0.50;74.24;100654.25;1732954;80;20962;-50
2022/02/14 00:09:23;;;;;;;8.87;4.53;;;;;;;-0.51;74.16;100647.22;1739136;80;20934;-50
2022/02/14 00:11:50;;;;;;;8.07;3.63;;;;;;;-0.54;74.12;100641.45;1736806;80;21447;-52
2022/02/14 00:14:18;;;;;;;6.47;3.43;;;;;;;-0.54;74.07;100641.45;1730835;80;21093;-51
2022/02/14 00:16:45;;;;;;;9.47;4.30;;;;;;;-0.55;74.05;100649.36;1729349;80;21065;-52
2022/02/14 00:19:11;;;;;;;7.23;2.60;;;;;;;-0.56;74.04;100645.83;1730801;80;21045;-51
2022/02/14 00:21:39;;;;;;;6.50;2.17;;;;;;;-0.55;73.96;100648.05;1733651;80;21060;-51
2022/02/14 00:24:06;;;;;;;6.80;2.67;;;;;;;-0.54;73.89;100650.71;1734715;80;21144;-52
2022/02/14 00:26:34;;;;;;;7.57;2.73;;;;;;;-0.54;73.82;100649.82;1732731;80;21508;-52
2022/02/14 00:29:01;;;;;;;6.77;3.47;;;;;;;-0.55;73.76;100646.72;1738626;80;22344;-51
2022/02/14 00:31:28;;;;;;;7.70;3.27;;;;;;;-0.55;73.71;100646.72;1739334;80;21476;-51
2022/02/14 00:33:54;;;;;;;8.07;2.30;;;;;;;-0.57;73.63;100648.02;1736726;80;21478;-51
2022/02/14 00:36:21;;;;;;;6.13;3.37;;;;;;;-0.58;73.58;100644.92;1733768;80;22455;-50
2022/02/14 00:38:48;;;;;;;6.53;2.77;;;;;;;-0.57;73.50;100638.77;1734365;80;21030;-50
2022/02/14 00:41:15;;;;;;;6.47;2.43;;;;;;;-0.57;73.44;100640.09;1732413;80;21035;-50
2022/02/14 00:43:41;;;;;;;8.37;3.10;;;;;;;-0.57;73.39;100629.51;1736660;80;21091;-51
2022/02/14 00:46:08;;;;;;;6.90;3.33;;;;;;;-0.57;73.32;100633.48;1735703;80;21087;-51
2022/02/14 00:48:35;;;;;;;8.73;4.77;;;;;;;-0.57;73.29;100629.95;1736065;80;21135;-50
2022/02/14 00:51:01;;;;;;;7.73;4.20;;;;;;;-0.58;73.24;100634.34;1734019;80;21073;-50
2022/02/14 00:53:28;;;;;;;7.60;3.93;;;;;;;-0.58;73.23;100629.48;1733851;80;21126;-51
2022/02/14 00:55:54;;;;;;;6.13;3.93;;;;;;;-0.57;73.18;100631.27;1724958;80;21224;-51
2022/02/14 00:58:20;;;;;;;6.30;3.60;;;;;;;-0.59;73.17;100625.06;1720283;81;21127;-51
2022/02/14 01:00:47;;;;;;;8.73;3.80;;;;;;;-0.60;73.16;100623.32;1723385;81;21099;-51
2022/02/14 01:03:13;;;;;;;10.50;6.60;;;;;;;-0.62;73.13;100611.84;1722219;81;21069;-51
2022/02/14 01:05:42;;;;;;;12.93;7.37;;;;;;;-0.63;73.16;100618.88;1721007;81;20968;-50
2022/02/14 01:08:08;;;;;;;6.93;5.40;;;;;;;-0.64;73.14;100617.09;1725402;81;20935;-51
2022/02/14 01:10:36;;;;;;;7.83;4.93;;;;;;;-0.65;73.14;100617.97;1725377;80;21492;-51
2022/02/14 01:13:02;;;;;;;6.40;4.03;;;;;;;-0.65;73.12;100611.79;1725649;81;20972;-51
2022/02/14 01:15:29;;;;;;;5.93;4.87;;;;;;;-0.67;73.15;100617.05;1724960;81;21018;-51
2022/02/14 01:17:56;;;;;;;10.63;5.37;;;;;;;-0.67;73.12;100610.88;1723017;81;21415;-49
2022/02/14 01:20:22;;;;;;;9.60;4.60;;;;;;;-0.67;73.15;100612.20;1721994;81;21445;-51
2022/02/14 01:22:48;;;;;;;8.10;5.10;;;;;;;-0.69;73.10;100613.53;1722256;81;21748;-50
2022/02/14 01:25:15;;;;;;;7.67;6.20;;;;;;;-0.69;73.09;100612.64;1723317;81;21924;-50
2022/02/14 01:27:41;;;;;;;9.43;6.33;;;;;;;-0.69;73.09;100612.64;1724347;81;21581;-51
2022/02/14 01:30:09;;;;;;;9.90;6.20;;;;;;;-0.72;73.07;100608.20;1719769;81;21026;-52
2022/02/14 01:32:36;;;;;;;10.57;7.03;;;;;;;-0.72;73.07;100602.03;1727174;81;20907;-51
2022/02/14 01:35:04;;;;;;;8.50;6.90;;;;;;;-0.73;73.05;100601.57;1723618;81;21536;-50
2022/02/14 01:37:32;;;;;;;9.73;7.33;;;;;;;-0.76;73.08;100600.66;1720649;81;21467;-50
2022/02/14 01:40:00;;;;;;;9.07;6.53;;;;;;;-0.76;73.08;100599.77;1723401;81;21113;-51
2022/02/14 01:42:26;;;;;;;7.67;6.33;;;;;;;-0.79;73.08;100598.00;1725799;81;20983;-51
2022/02/14 01:44:53;;;;;;;10.10;6.70;;;;;;;-0.80;73.13;100597.55;1724687;81;20939;-53
2022/02/14 01:47:22;;;;;;;7.80;5.20;;;;;;;-0.82;73.19;100593.11;1720653;81;21462;-49
2022/02/14 01:49:49;;;;;;;8.13;4.03;;;;;;;-0.83;73.20;100587.36;1724104;81;20907;-51
2022/02/14 01:52:16;;;;;;;9.27;4.90;;;;;;;-0.85;73.19;100582.52;1721184;80;21062;-51
2022/02/14 01:54:46;;;;;;;10.27;5.30;;;;;;;-0.87;73.27;100578.97;1720245;80;21074;-52
2022/02/14 01:57:13;;;;;;;7.13;3.53;;;;;;;-0.89;73.28;100574.98;1721332;81;21098;-51
2022/02/14 01:59:40;;;;;;;5.53;2.83;;;;;;;-0.90;73.35;100578.48;1724853;81;21812;-54
2022/02/14 02:02:08;;;;;;;5.27;2.53;;;;;;;-0.90;73.35;100576.28;1721981;81;20978;-53
2022/02/14 02:04:34;;;;;;;6.00;2.37;;;;;;;-0.90;73.35;100569.67;1724615;81;20880;-53
2022/02/14 02:07:02;;;;;;;9.33;2.63;;;;;;;-0.91;73.36;100564.82;1721065;81;20879;-53
2022/02/14 02:09:29;;;;;;;6.80;1.87;;;;;;;-0.91;73.34;100570.11;1722605;81;20927;-53
2022/02/14 02:14:40;;;;;;;6.10;2.25;;;;;;;-0.94;73.42;100558.63;1726228;81;20998;-53
2022/02/14 02:17:06;;;;;;;6.73;3.13;;;;;;;-0.95;73.46;100550.25;1726855;81;20912;-53
2022/02/14 02:19:34;;;;;;;6.03;2.67;;;;;;;-0.95;73.43;100548.92;1723851;80;21320;-53
2022/02/14 02:22:00;;;;;;;7.70;3.33;;;;;;;-0.97;73.47;100548.91;1724822;81;21528;-53
2022/02/14 02:24:26;;;;;;;3.63;2.17;;;;;;;-0.97;73.50;100542.30;1721600;80;21492;-53
2022/02/14 02:26:59;;;;;;;7.53;3.33;;;;;;;-0.97;73.45;100543.62;1723801;81;20888;-54
2022/02/14 02:29:25;;;;;;;6.53;2.30;;;;;;;-0.97;73.43;100549.34;1722633;80;21344;-53
2022/02/14 02:31:51;;;;;;;2.97;1.67;;;;;;;-0.98;73.43;100544.92;1719892;81;21540;-53
2022/02/14 02:34:17;;;;;;;4.60;1.90;;;;;;;-0.99;73.43;100544.03;1724560;80;20927;-53
2022/02/14 02:36:55;;;;;;;7.87;3.13;;;;;;;-0.97;73.45;100546.70;1727405;81;20915;-54
2022/02/14 02:39:22;;;;;;;5.43;2.50;;;;;;;-0.97;73.39;100545.37;1723753;80;20991;-51
2022/02/14 02:41:48;;;;;;;5.27;2.60;;;;;;;-0.98;73.39;100549.77;1722291;81;21012;-51
2022/02/14 02:44:15;;;;;;;5.17;2.47;;;;;;;-0.99;73.39;100544.03;1725598;80;20876;-51
2022/02/14 02:46:42;;;;;;;7.97;3.23;;;;;;;-0.99;73.37;100547.11;1724495;81;20931;-51
2022/02/14 02:49:12;;;;;;;7.23;2.87;;;;;;;-1.01;73.33;100548.41;1717916;80;21540;-53
2022/02/14 02:51:39;;;;;;;6.13;2.57;;;;;;;-1.01;73.33;100555.01;1721160;81;21047;-53
2022/02/14 02:54:06;;;;;;;4.73;2.27;;;;;;;-1.02;73.31;100547.95;1729443;80;21043;-53
2022/02/14 02:56:37;;;;;;;6.53;3.33;;;;;;;-1.04;73.29;100551.47;1730131;80;20969;-53
2022/02/14 02:59:04;;;;;;;10.10;2.80;;;;;;;-1.07;73.31;100548.34;1731353;80;20954;-53
2022/02/14 03:01:31;;;;;;;7.33;2.27;;;;;;;-1.09;73.35;100546.55;1731271;80;21072;-53
2022/02/14 03:03:58;;;;;;;4.73;2.07;;;;;;;-1.12;73.41;100532.89;1735159;80;20959;-53
2022/02/14 03:06:24;;;;;;;8.60;2.10;;;;;;;-1.13;73.43;100535.08;1732791;80;21551;-54
2022/02/14 03:08:51;;;;;;;5.80;2.10;;;;;;;-1.15;73.45;100533.73;1726543;80;21409;-53
2022/02/14 03:11:18;;;;;;;5.60;2.37;;;;;;;-1.16;73.48;100537.23;1730613;80;21438;-53
2022/02/14 03:13:45;;;;;;;9.33;2.60;;;;;;;-1.17;73.47;100535.46;1734761;80;21537;-53
2022/02/14 03:16:12;;;;;;;6.87;2.60;;;;;;;-1.19;73.51;100532.34;1729341;80;21623;-53
2022/02/14 03:18:39;;;;;;;5.97;2.07;;;;;;;-1.21;73.55;100532.78;1685872;83;21434;-53
2022/02/14 03:21:06;;;;;;;7.77;3.93;;;;;;;-1.22;73.62;100538.94;1728510;80;21945;-53
2022/02/14 03:23:33;;;;;;;4.80;2.50;;;;;;;-1.24;73.64;100535.37;1732700;80;21802;-53
2022/02/14 03:25:59;;;;;;;6.53;3.67;;;;;;;-1.26;73.69;100534.03;1732145;80;21912;-54
2022/02/14 03:28:26;;;;;;;6.10;2.10;;;;;;;-1.24;73.74;100532.73;1730362;80;21418;-53
2022/02/14 03:30:52;;;;;;;5.43;2.10;;;;;;;-1.23;73.75;100535.84;1736255;80;20946;-53
2022/02/14 03:33:19;;;;;;;4.43;1.80;;;;;;;-1.25;73.75;100538.45;1728807;80;21484;-53
2022/02/14 03:35:46;;;;;;;4.23;2.13;;;;;;;-1.25;73.74;100535.81;1728606;80;21065;-53
2022/02/14 03:38:12;;;;;;;6.20;2.17;;;;;;;-1.25;73.81;100535.81;1728186;80;21166;-53
2022/02/14 03:40:39;;;;;;;6.00;2.70;;;;;;;-1.25;73.74;100529.64;1728988;80;21085;-53
2022/02/14 03:43:08;;;;;;;7.53;2.80;;;;;;;-1.25;73.72;100533.60;1729872;80;20903;-53
2022/02/14 03:45:36;;;;;;;6.23;2.70;;;;;;;-1.26;73.77;100533.15;1730948;80;21105;-53
2022/02/14 03:48:04;;;;;;;7.13;2.63;;;;;;;-1.26;73.78;100529.19;1728918;80;21537;-53
2022/02/14 03:50:30;;;;;;;7.57;2.67;;;;;;;-1.28;73.77;100528.30;1729007;80;21156;-53
2022/02/14 03:52:57;;;;;;;3.90;2.63;;;;;;;-1.27;73.78;100524.77;1727152;80;21684;-54
2022/02/14 03:55:23;;;;;;;7.47;2.30;;;;;;;-1.28;73.82;100518.63;1725987;80;21599;-53
2022/02/14 03:57:50;;;;;;;8.20;3.57;;;;;;;-1.29;73.87;100521.25;1724787;81;21031;-53
2022/02/14 04:00:19;;;;;;;5.57;2.00;;;;;;;-1.29;73.84;100522.13;1715616;81;21200;-53
2022/02/14 04:02:46;;;;;;;6.10;2.43;;;;;;;-1.29;73.90;100515.97;1723763;81;21128;-53
2022/02/14 04:05:13;;;;;;;9.77;2.63;;;;;;;-1.29;73.83;100510.25;1719948;81;21516;-53
2022/02/14 04:10:16;;;;;;;5.33;2.77;;;;;;;-1.28;73.91;100509.39;1776014;78;26611;-53
2022/02/14 04:12:43;;;;;;;5.53;2.80;;;;;;;-1.33;73.96;100506.22;1740941;80;21685;-52
2022/02/14 04:15:11;;;;;;;5.80;2.77;;;;;;;-1.33;73.98;100499.61;1740876;80;21268;-52
2022/02/14 04:17:38;;;;;;;6.77;2.60;;;;;;;-1.31;73.94;100503.16;1742560;80;20997;-53
2022/02/14 04:20:06;;;;;;;4.90;2.23;;;;;;;-1.32;73.97;100496.11;1737850;80;22261;-53
2022/02/14 04:22:32;;;;;;;13.53;3.00;;;;;;;-1.34;73.94;100499.16;1744864;80;21025;-52
2022/02/14 04:24:58;;;;;;;3.20;2.37;;;;;;;-1.36;73.95;100507.05;1739267;80;20953;-53
2022/02/14 04:27:25;;;;;;;8.23;2.63;;;;;;;-1.37;73.98;100508.39;1739748;80;21565;-53
2022/02/14 04:29:51;;;;;;;10.70;2.60;;;;;;;-1.39;74.01;100501.77;1744386;80;21414;-53
2022/02/14 04:32:18;;;;;;;7.87;2.53;;;;;;;-1.40;74.07;100501.30;1738493;80;21897;-53
2022/02/14 04:34:44;;;;;;;8.27;3.13;;;;;;;-1.40;74.14;100501.73;1738458;80;21117;-53
2022/02/14 04:37:10;;;;;;;6.10;2.03;;;;;;;-1.40;74.21;100497.77;1736378;80;21081;-53
2022/02/14 04:39:37;;;;;;;5.63;2.87;;;;;;;-1.40;74.18;100498.66;1704814;81;21370;-53
2022/02/14 04:42:04;;;;;;;8.70;2.73;;;;;;;-1.39;74.21;100495.59;1705456;81;21044;-53
2022/02/14 04:44:30;;;;;;;5.73;2.27;;;;;;;-1.40;74.23;100502.63;1710098;81;21099;-53
2022/02/14 04:46:57;;;;;;;7.67;2.87;;;;;;;-1.41;74.21;100501.28;1720929;81;21558;-53
2022/02/14 04:49:23;;;;;;;7.33;2.13;;;;;;;-1.42;74.22;100504.35;1706612;81;21597;-53
2022/02/14 04:51:50;;;;;;;12.03;3.30;;;;;;;-1.42;74.30;100504.78;1706563;81;21156;-53
2022/02/14 04:54:16;;;;;;;5.50;2.80;;;;;;;-1.44;74.31;100512.69;1707902;81;21681;-53
2022/02/14 04:56:42;;;;;;;5.77;1.73;;;;;;;-1.45;74.35;100513.58;1696329;81;21320;-51
2022/02/14 04:59:09;;;;;;;7.93;2.30;;;;;;;-1.46;74.35;100514.45;1681130;83;21021;-53
2022/02/14 05:01:35;;;;;;;5.60;3.27;;;;;;;-1.47;74.37;100519.27;1663548;84;21200;-52
2022/02/14 05:04:01;;;;;;;6.03;3.47;;;;;;;-1.47;74.41;100518.37;1672951;83;21168;-52
2022/02/14 05:06:28;;;;;;;17.63;9.50;;;;;;;-1.48;74.46;100524.53;1669409;83;21377;-52
2022/02/14 05:08:55;;;;;;;18.27;8.90;;;;;;;-1.50;74.47;100531.53;1676378;83;20966;-52
2022/02/14 05:11:22;;;;;;;15.27;8.73;;;;;;;-1.50;74.53;100532.85;1671486;84;20978;-52
2022/02/14 05:13:50;;;;;;;11.90;6.77;;;;;;;-1.50;74.59;100531.10;1685325;83;20901;-52
2022/02/14 05:16:22;;;;;;;12.63;7.27;;;;;;;-1.50;74.59;100532.85;1657016;84;21737;-52
2022/02/14 05:18:45;;;;;;;16.47;9.03;;;;;;;-1.50;74.65;100542.09;1662522;84;21324;-52
2022/02/14 05:21:12;;;;;;;15.47;8.20;;;;;;;-1.51;74.65;100545.16;1678884;83;20938;-52
2022/02/14 05:23:38;;;;;;;13.23;6.60;;;;;;;-1.49;74.63;100554.44;1671799;83;20946;-52
2022/02/14 05:26:04;;;;;;;6.30;4.77;;;;;;;-1.47;74.62;100555.34;1655439;84;21404;-52
2022/02/14 05:28:32;;;;;;;8.30;4.33;;;;;;;-1.46;74.61;100559.77;1656341;84;21182;-53
2022/02/14 05:30:58;;;;;;;13.13;5.53;;;;;;;-1.46;74.60;100558.45;1667086;84;20919;-53
2022/02/14 05:33:25;;;;;;;8.53;3.77;;;;;;;-1.46;74.63;100553.16;1668327;84;20931;-53
2022/02/14 05:35:51;;;;;;;9.23;3.73;;;;;;;-1.47;74.67;100551.39;1676394;84;21545;-53
2022/02/14 05:38:17;;;;;;;6.27;2.60;;;;;;;-1.48;74.73;100553.14;1680159;83;21412;-53
2022/02/14 05:40:43;;;;;;;4.37;2.70;;;;;;;-1.46;74.79;100554.05;1678814;83;21500;-53
2022/02/14 05:43:12;;;;;;;7.73;2.70;;;;;;;-1.43;74.85;100551.43;1678464;83;20913;-53
2022/02/14 05:45:38;;;;;;;6.80;3.63;;;;;;;-1.37;74.86;100566.05;1687980;83;20918;-53
2022/02/14 05:48:04;;;;;;;6.57;2.17;;;;;;;-1.34;74.82;100570.47;1652668;83;20973;-53
2022/02/14 05:50:32;;;;;;;7.37;3.73;;;;;;;-1.29;74.84;100571.00;1679689;83;21492;-53
2022/02/14 05:52:59;;;;;;;7.00;2.87;;;;;;;-1.23;74.68;100580.74;1677151;83;21541;-52
2022/02/14 05:55:25;;;;;;;6.27;2.90;;;;;;;-1.20;74.66;100576.83;1682845;83;21368;-53
2022/02/14 05:57:52;;;;;;;8.77;4.00;;;;;;;-1.17;74.62;100579.05;1677065;83;20910;-53
2022/02/14 06:00:19;;;;;;;6.77;3.73;;;;;;;-1.12;74.55;100580.45;1685332;83;21918;-53
2022/02/14 06:02:46;;;;;;;5.80;2.67;;;;;;;-1.08;74.55;100580.92;1675735;83;21496;-52
2022/02/14 06:05:12;;;;;;;5.40;2.67;;;;;;;-1.01;74.50;100580.11;1679125;83;21364;-52
2022/02/14 06:07:38;;;;;;;7.20;2.30;;;;;;;-0.94;74.39;100585.95;1679574;83;20945;-52
2022/02/14 06:10:08;;;;;;;5.30;2.93;;;;;;;-0.89;74.29;100580.27;1669458;83;21057;-52
2022/02/14 06:12:36;;;;;;;9.83;2.03;;;;;;;-0.82;74.19;100578.56;1665098;84;20977;-51
2022/02/14 06:15:02;;;;;;;5.80;3.00;;;;;;;-0.76;74.05;100581.27;1664921;84;21054;-52
2022/02/14 06:17:29;;;;;;;6.87;2.40;;;;;;;-0.71;73.91;100580.89;1665158;83;21516;-52
2022/02/14 06:19:55;;;;;;;7.87;2.50;;;;;;;-0.67;73.80;100585.33;1663739;84;21363;-52
2022/02/14 06:22:21;;;;;;;7.53;2.93;;;;;;;-0.64;73.67;100578.76;1661729;84;21109;-52
2022/02/14 06:24:48;;;;;;;4.30;2.20;;;;;;;-0.59;73.60;100578.79;1664076;83;21378;-53
2022/02/14 06:27:14;;;;;;;8.37;3.13;;;;;;;-0.55;73.53;100581.94;1667822;84;21069;-52
2022/02/14 06:29:40;;;;;;;5.87;2.30;;;;;;;-0.50;73.43;100585.49;1660893;83;22468;-52
2022/02/14 06:32:07;;;;;;;7.67;3.67;;;;;;;-0.46;73.36;100592.60;1701872;82;21502;-53
2022/02/14 06:34:33;;;;;;;4.73;1.53;;;;;;;-0.41;73.25;100586.91;1664688;83;21535;-52
2022/02/14 06:37:00;;;;;;;8.30;2.80;;;;;;;-0.34;73.11;100586.55;1663200;84;21077;-51
2022/02/14 06:39:27;;;;;;;7.20;1.97;;;;;;;-0.30;72.94;100585.25;1664972;84;20993;-51
2022/02/14 06:41:53;;;;;;;6.23;2.77;;;;;;;-0.25;72.87;100583.52;1658689;84;21464;-50
2022/02/14 06:44:19;;;;;;;4.33;2.73;;;;;;;-0.19;72.74;100580.95;1665738;83;21065;-51
2022/02/14 06:46:46;;;;;;;4.67;2.00;;;;;;;-0.13;72.63;100589.36;1663826;84;21742;-51
2022/02/14 06:49:12;;;;;;;5.90;1.97;;;;;;;-0.09;72.39;100581.47;1668206;84;21108;-50
2022/02/14 06:51:39;;;;;;;7.43;3.40;;;;;;;-0.05;72.23;100588.98;1652253;84;21141;-51
2022/02/14 06:54:06;;;;;;;6.80;2.30;;;;;;;-0.01;72.17;100586.39;1664270;83;21239;-50
2022/02/14 06:56:35;;;;;;;5.60;2.50;;;;;;;0.04;72.00;100582.87;1658417;83;21048;-50
2022/02/14 06:59:01;;;;;;;4.20;1.97;;;;;;;0.06;71.90;100574.08;1676175;84;21006;-51
2022/02/14 07:01:28;;;;;;;7.10;2.30;;;;;;;0.12;71.79;100570.58;1664863;83;21120;-50
2022/02/14 07:03:54;;;;;;;5.73;2.27;;;;;;;0.17;71.72;100576.80;1659017;84;21136;-51
2022/02/14 07:06:20;;;;;;;5.63;1.97;;;;;;;0.22;71.60;100573.30;1667476;83;21143;-52
2022/02/14 07:08:48;;;;;;;4.97;2.00;;;;;;;0.28;71.56;100580.38;1669360;85;21056;-50
2022/02/14 07:11:14;;;;;;;5.47;2.33;;;;;;;0.35;71.33;100580.86;1667427;84;21097;-50
2022/02/14 07:13:41;;;;;;;6.37;2.20;;;;;;;0.40;71.12;100576.94;1667388;84;21051;-51
2022/02/14 07:16:07;;;;;;;3.20;1.43;;;;;;;0.45;70.97;100579.16;1667771;84;21577;-52
2022/02/14 07:18:36;;;;;;;6.33;2.67;;;;;;;0.50;70.85;100579.66;1703256;82;21535;-53
2022/02/14 07:21:04;;;;;;;5.33;1.57;;;;;;;0.57;70.70;100572.18;1704556;82;20998;-52
2022/02/14 07:23:31;;;;;;;5.77;1.40;;;;;;;0.63;70.44;100566.02;1666209;84;21084;-51
2022/02/14 07:25:58;;;;;;;4.33;2.07;;;;;;;0.70;70.26;100571.34;1667506;85;21045;-52
2022/02/14 07:28:26;;;;;;;2.70;1.53;;;;;;;0.76;70.09;100574.48;1670908;84;21101;-53
2022/02/14 07:30:52;;;;;;;5.17;1.70;;;;;;;0.84;70.03;100573.19;1668684;83;21791;-53
2022/02/14 07:33:20;;;;;;;8.00;1.90;;;;;;;0.90;69.90;100570.11;1667889;84;21050;-55
2022/02/14 07:35:47;;;;;;;4.50;1.60;;;;;;;0.98;69.56;100567.48;1696134;82;21407;-56
2022/02/14 07:38:13;;;;;;;4.63;1.63;;;;;;;1.03;69.35;100555.11;1693966;82;21064;-52
2022/02/14 07:40:41;;;;;;;7.00;2.07;;;;;;;1.09;69.08;100552.06;1699372;82;21380;-53
2022/02/14 07:43:07;;;;;;;6.97;1.97;;;;;;;1.15;68.94;100556.48;1697695;82;22297;-54
2022/02/14 07:45:35;;;;;;;7.83;1.50;;;;;;;1.19;68.79;100554.30;1700418;82;21503;-54
2022/02/14 07:48:04;;;;;;;4.47;1.57;;;;;;;1.24;68.72;100559.17;1688853;82;21090;-53
2022/02/14 07:50:31;;;;;;;3.77;1.50;;;;;;;1.31;68.58;100549.45;1685221;82;21389;-56
2022/02/14 07:52:57;;;;;;;3.30;1.57;;;;;;;1.37;68.37;100554.31;1699564;82;21049;-56
2022/02/14 07:55:24;;;;;;;4.20;1.43;;;;;;;1.43;68.01;100543.73;1706386;82;21195;-54
2022/02/14 07:57:50;;;;;;;4.00;1.57;;;;;;;1.48;67.88;100545.05;1700120;82;21391;-53
2022/02/14 08:00:17;;;;;;;4.70;2.00;;;;;;;1.53;67.69;100548.61;1668621;84;21144;-54
2022/02/14 08:02:43;;;;;;;3.47;1.97;;;;;;;1.56;67.36;100550.36;1650414;85;21086;-57
2022/02/14 08:05:10;;;;;;;3.87;2.10;;;;;;;1.59;67.28;100548.61;1649377;85;21110;-56
2022/02/14 08:07:38;;;;;;;4.40;2.00;;;;;;;1.63;67.16;100555.67;1701882;82;21062;-57
2022/02/14 08:10:05;;;;;;;8.03;1.53;;;;;;;1.69;67.13;100553.48;1698943;82;20986;-54
2022/02/14 08:12:34;;;;;;;4.37;1.40;;;;;;;1.75;67.03;100558.78;1664897;84;20989;-58
2022/02/14 08:15:03;;;;;;;3.67;1.33;;;;;;;1.82;66.92;100560.55;1703203;82;21505;-55
2022/02/14 08:17:31;;;;;;;3.60;1.40;;;;;;;1.86;66.51;100555.25;1700293;82;21104;-55
2022/02/14 08:20:00;;;;;;;4.07;1.80;;;;;;;1.90;66.50;100559.66;1708338;82;21563;-54
2022/02/14 08:22:27;;;;;;;6.50;1.57;;;;;;;1.95;66.44;100554.36;1700843;82;21579;-55
2022/02/14 08:24:54;;;;;;;6.70;2.60;;;;;;;2.02;66.20;100551.25;1698203;82;21401;-56
2022/02/14 08:27:21;;;;;;;5.57;1.50;;;;;;;2.08;66.04;100560.53;1703182;82;21862;-56
2022/02/14 08:29:47;;;;;;;2.43;1.53;;;;;;;2.09;65.92;100556.55;1667968;84;20985;-55
2022/02/14 08:32:15;;;;;;;2.83;1.27;;;;;;;2.15;65.87;100551.66;1652691;85;21406;-54
2022/02/14 08:34:42;;;;;;;5.13;1.60;;;;;;;2.21;65.64;100547.69;1652688;85;21437;-55
2022/02/14 08:37:11;;;;;;;6.30;1.50;;;;;;;2.23;65.22;100542.80;1661920;84;21328;-55
2022/02/14 08:39:39;;;;;;;2.67;1.23;;;;;;;2.25;65.07;100546.78;1668247;84;21723;-55
2022/02/14 08:42:06;;;;;;;4.87;1.40;;;;;;;2.29;64.87;100551.22;1665480;83;21010;-54
2022/02/14 08:44:33;;;;;;;4.37;1.60;;;;;;;2.34;64.78;100555.17;1660973;85;21079;-54
2022/02/14 08:46:59;;;;;;;5.30;1.53;;;;;;;2.37;64.31;100548.54;1658867;84;20986;-54
2022/02/14 08:49:27;;;;;;;2.83;1.30;;;;;;;2.37;64.02;100557.84;1663356;84;21002;-57
2022/02/14 08:51:54;;;;;;;3.10;1.17;;;;;;;2.37;63.99;100544.55;1664989;84;20998;-55
2022/02/14 08:54:21;;;;;;;3.33;1.33;;;;;;;2.41;63.90;100552.94;1666593;84;20955;-59
2022/02/14 08:56:47;;;;;;;3.90;1.83;;;;;;;2.45;63.90;100549.40;1666815;84;22232;-57
2022/02/14 08:59:19;;;;;;;3.67;1.43;;;;;;;2.50;63.99;100553.80;1667604;84;21434;-58
2022/02/14 09:01:42;;;;;;;3.43;1.27;;;;;;;2.58;63.97;100555.10;1659710;84;21011;-56
2022/02/14 09:04:08;;;;;;;2.50;1.37;;;;;;;2.64;63.72;100559.06;1663463;84;20978;-55
2022/02/14 09:06:34;;;;;;;4.20;1.23;;;;;;;2.70;63.17;100557.73;1665018;84;21010;-58
2022/02/14 09:09:01;;;;;;;2.00;1.00;;;;;;;2.75;63.12;100565.23;1667711;84;21603;-54
2022/02/14 09:11:27;;;;;;;2.80;1.10;;;;;;;2.77;63.09;100563.46;1668546;84;21054;-56
2022/02/14 09:13:53;;;;;;;4.37;1.50;;;;;;;2.81;62.80;100558.55;1668891;84;21015;-57
2022/02/14 09:16:20;;;;;;;3.07;1.07;;;;;;;2.86;62.61;100564.75;1669048;84;21542;-58
2022/02/14 09:18:46;;;;;;;2.87;1.37;;;;;;;2.91;62.49;100561.62;1667079;84;20890;-55
2022/02/14 09:21:13;;;;;;;4.77;1.37;;;;;;;2.94;62.04;100564.27;1659553;84;21771;-56
2022/02/14 09:23:39;;;;;;;2.63;0.93;;;;;;;2.96;62.08;100562.95;1661740;84;21105;-56
2022/02/14 09:26:06;;;;;;;2.40;1.00;;;;;;;2.98;62.15;100558.03;1677409;83;21071;-55
2022/02/14 09:28:35;;;;;;;3.60;1.20;;;;;;;3.03;62.20;100555.37;1703191;81;21419;-58
2022/02/14 09:31:01;;;;;;;5.10;1.80;;;;;;;3.09;62.36;100552.67;1710677;81;21074;-56
2022/02/14 09:33:28;;;;;;;5.63;1.07;;;;;;;3.16;62.02;100554.40;1683231;81;21136;-57
2022/02/14 09:35:54;;;;;;;3.93;0.97;;;;;;;3.22;61.98;100556.16;1674405;83;21204;-55
2022/02/14 09:38:24;;;;;;;2.83;1.40;;;;;;;3.26;61.53;100552.13;1677970;83;21396;-57
2022/02/14 09:40:49;;;;;;;3.30;1.20;;;;;;;3.27;61.30;100545.91;1708613;81;20983;-55
2022/02/14 09:43:16;;;;;;;1.50;1.03;;;;;;;3.28;60.99;100547.69;1708459;81;20880;-58
2022/02/14 09:45:43;;;;;;;3.23;1.33;;;;;;;3.27;60.69;100541.92;1711321;81;21101;-56
2022/02/14 09:48:11;;;;;;;5.57;1.57;;;;;;;3.25;60.72;100536.17;1711743;81;21030;-55
2022/02/14 09:50:39;;;;;;;1.73;0.83;;;;;;;3.29;60.90;100540.59;1705645;81;21378;-56
2022/02/14 09:53:09;;;;;;;2.80;1.10;;;;;;;3.32;60.85;100537.89;1706499;81;21543;-55
2022/02/14 09:55:37;;;;;;;4.20;1.00;;;;;;;3.35;60.93;100541.87;1680413;83;21092;-57
2022/02/14 09:58:06;;;;;;;3.83;1.20;;;;;;;3.39;60.58;100538.31;1712710;81;21089;-56
2022/02/14 10:00:35;;;;;;;2.70;1.00;;;;;;;3.40;60.54;100531.63;1701843;81;21023;-56
2022/02/14 10:03:16;;;;;;;3.40;1.40;;;;;;;3.43;60.47;100530.28;1711130;81;20958;-59
2022/02/14 10:05:49;;;;;;;2.93;1.23;;;;;;;3.46;59.88;100527.17;1711589;81;21517;-57
2022/02/14 10:08:31;;;;;;;1.70;0.87;;;;;;;3.45;59.60;100534.72;1706584;81;20962;-54
2022/02/14 10:11:14;;;;;;;2.43;1.00;;;;;;;3.46;59.47;100533.38;1702360;81;21093;-58
2022/02/14 10:13:41;;;;;;;3.20;0.90;;;;;;;3.47;59.15;100528.50;1702136;82;21018;-56
2022/02/14 10:16:11;;;;;;;1.67;1.00;;;;;;;3.46;59.05;100520.52;1699125;82;20927;-55
2022/02/14 10:18:38;;;;;;;2.53;0.87;;;;;;;3.49;59.42;100523.17;1661120;84;21058;-56
2022/02/14 10:21:24;;;;;;;2.97;1.20;;;;;;;3.53;59.72;100524.45;1663505;84;21818;-57
2022/02/14 10:24:08;;;;;;;2.65;1.07;;;;;;;3.60;59.63;100526.61;1665639;83;21149;-57
2022/02/14 10:26:40;;;;;;;2.87;0.90;;;;;;;3.63;59.43;100527.48;1666147;83;21832;-57
2022/02/14 10:29:12;;;;;;;1.90;1.40;;;;;;;3.67;59.01;100519.89;1665933;83;21053;-57
2022/02/14 10:31:45;;;;;;;3.00;1.03;;;;;;;3.69;59.06;100514.56;1695333;82;21552;-56
2022/02/14 10:34:12;;;;;;;2.37;1.10;;;;;;;3.71;58.86;100514.11;1698464;82;21530;-58
2022/02/14 10:36:44;;;;;;;1.90;0.90;;;;;;;3.73;58.84;100517.20;1702445;82;21078;-54
2022/02/14 10:39:23;;;;;;;2.73;1.00;;;;;;;3.76;58.72;100498.52;1704276;82;21633;-59
2022/02/14 10:42:04;;;;;;;2.67;1.13;;;;;;;3.80;58.27;100502.93;1670103;84;20982;-57
2022/02/14 10:47:25;;;;;;;3.03;1.00;;;;;;;3.86;57.99;100495.32;1663622;84;21265;-56
2022/02/14 10:50:18;;;;;;;1.30;0.80;;;;;;;3.91;57.89;100499.29;1665940;83;22196;-58
2022/02/14 10:52:57;;;;;;;3.80;1.13;;;;;;;3.92;57.40;100497.03;1696444;82;21528;-56
2022/02/14 10:55:37;;;;;;;1.63;1.00;;;;;;;3.93;57.47;100498.36;1700833;82;20923;-52
2022/02/14 10:58:03;;;;;;;1.57;1.47;;;;;;;3.95;57.33;100495.23;1660814;83;21459;-55
2022/02/14 11:00:36;;;;;;;2.50;0.80;;;;;;;3.98;56.43;100495.66;1701069;82;21101;-55
2022/02/14 11:03:06;;;;;;;3.83;0.93;;;;;;;3.97;55.90;100493.89;1698008;82;21138;-55
2022/02/14 11:05:31;;;;;;;2.03;0.80;;;;;;;3.95;55.63;100504.56;1667518;84;20883;-53
2022/02/14 11:07:58;;;;;;;1.13;0.80;;;;;;;3.90;55.26;100501.07;1659806;83;20922;-57
2022/02/14 11:10:25;;;;;;;2.30;0.80;;;;;;;3.87;55.30;100502.87;1641127;85;20895;-56
2022/02/14 11:12:57;;;;;;;1.60;0.90;;;;;;;3.88;55.48;100499.31;1654501;84;21050;-54
2022/02/14 11:15:30;;;;;;;3.30;0.93;;;;;;;3.88;55.42;100498.86;1677581;83;22122;-58
2022/02/14 11:18:14;;;;;;;1.85;0.80;;;;;;;3.87;55.56;100498.88;1658291;84;20978;-57
2022/02/14 11:20:41;;;;;;;2.43;0.90;;;;;;;3.88;55.71;100493.53;1657451;84;21406;-55
2022/02/14 11:23:10;;;;;;;1.20;0.80;;;;;;;3.90;55.47;100494.41;1655788;84;20979;-56
2022/02/14 11:26:02;;;;;;;2.47;0.70;;;;;;;3.92;54.75;100490.38;1676016;83;21147;-56
2022/02/14 11:28:51;;;;;;;2.53;0.70;;;;;;;3.91;54.63;100470.87;1669269;83;21140;-57
2022/02/14 11:31:23;;;;;;;2.20;0.93;;;;;;;3.90;54.04;100485.09;1676867;83;21475;-56
2022/02/14 11:33:59;;;;;;;1.87;0.70;;;;;;;3.87;54.05;100477.12;1658502;84;20967;-55
2022/02/14 11:36:28;;;;;;;2.10;1.00;;;;;;;3.84;54.09;100464.27;1659485;84;21346;-56
2022/02/14 11:38:56;;;;;;;6.83;0.80;;;;;;;3.84;54.07;100466.48;1658607;84;20979;-55